sensor_id;sensor_type;location;lat;lon;timestamp;P1;P2;P0
57049;PMS7003;42935;50.966;16.992;2022-09-12T00:01:10;13;12;8
57049;PMS7003;42935;50.966;16.992;2022-09-12T00:04:24;18;14;10
57049;PMS7003;42935;50.966;16.992;2022-09-12T00:07:36;14;12;9
57049;PMS7003;42935;50.966;16.992;2022-09-12T00:10:47;15;13;9
57049;PMS7003;42935;50.966;16.992;2022-09-12T00:13:59;18;14;11
57049;PMS7003;42935;50.966;16.992;2022-09-12T00:17:12;14;11;8
57049;PMS7003;42935;50.966;16.992;2022-09-12T00:20:23;13;12;10
57049;PMS7003;42935;50.966;16.992;2022-09-12T00:23:38;15;12;9
57049;PMS7003;42935;50.966;16.992;2022-09-12T00:26:49;12;11;9
57049;PMS7003;42935;50.966;16.992;2022-09-12T00:30:04;14;13;9
57049;PMS7003;42935;50.966;16.992;2022-09-12T00:33:17;13;12;8
57049;PMS7003;42935;50.966;16.992;2022-09-12T00:36:29;13;12;8
57049;PMS7003;42935;50.966;16.992;2022-09-12T00:39:41;14;12;9
57049;PMS7003;42935;50.966;16.992;2022-09-12T00:42:51;15;14;11
57049;PMS7003;42935;50.966;16.992;2022-09-12T00:49:28;14;12;9
57049;PMS7003;42935;50.966;16.992;2022-09-12T00:56:08;18;14;11
57049;PMS7003;42935;50.966;16.992;2022-09-12T00:59:26;13;11;8
57049;PMS7003;42935;50.966;16.992;2022-09-12T01:02:43;12;11;9
57049;PMS7003;42935;50.966;16.992;2022-09-12T01:06:26;15;12;10
57049;PMS7003;42935;50.966;16.992;2022-09-12T01:09:31;13;11;7
57049;PMS7003;42935;50.966;16.992;2022-09-12T01:12:42;13;11;9
57049;PMS7003;42935;50.966;16.992;2022-09-12T01:15:55;13;12;8
57049;PMS7003;42935;50.966;16.992;2022-09-12T01:32:40;12;10;7
57049;PMS7003;42935;50.966;16.992;2022-09-12T01:39:30;12;11;8
57049;PMS7003;42935;50.966;16.992;2022-09-12T01:42:52;10;10;8
57049;PMS7003;42935;50.966;16.992;2022-09-12T01:46:14;13;12;10
57049;PMS7003;42935;50.966;16.992;2022-09-12T01:53:01;12;11;9
57049;PMS7003;42935;50.966;16.992;2022-09-12T01:56:26;14;11;7
57049;PMS7003;42935;50.966;16.992;2022-09-12T01:59:45;10;8;6
57049;PMS7003;42935;50.966;16.992;2022-09-12T02:03:01;14;10;7
57049;PMS7003;42935;50.966;16.992;2022-09-12T02:06:25;12;10;6
57049;PMS7003;42935;50.966;16.992;2022-09-12T02:09:49;13;11;8
57049;PMS7003;42935;50.966;16.992;2022-09-12T02:12:56;10;10;7
57049;PMS7003;42935;50.966;16.992;2022-09-12T02:16:18;10;9;6
57049;PMS7003;42935;50.966;16.992;2022-09-12T02:19:35;11;10;7
57049;PMS7003;42935;50.966;16.992;2022-09-12T02:22:51;13;11;8
57049;PMS7003;42935;50.966;16.992;2022-09-12T02:26:09;14;11;8
57049;PMS7003;42935;50.966;16.992;2022-09-12T02:29:25;12;11;7
57049;PMS7003;42935;50.966;16.992;2022-09-12T02:32:35;11;10;8
57049;PMS7003;42935;50.966;16.992;2022-09-12T02:39:18;11;10;7
57049;PMS7003;42935;50.966;16.992;2022-09-12T02:42:29;12;11;8
57049;PMS7003;42935;50.966;16.992;2022-09-12T02:45:41;11;10;8
57049;PMS7003;42935;50.966;16.992;2022-09-12T02:48:53;13;9;7
57049;PMS7003;42935;50.966;16.992;2022-09-12T02:52:06;11;10;7
57049;PMS7003;42935;50.966;16.992;2022-09-12T02:55:17;15;12;8
57049;PMS7003;42935;50.966;16.992;2022-09-12T02:58:29;10;10;6
57049;PMS7003;42935;50.966;16.992;2022-09-12T03:11:59;12;11;9
57049;PMS7003;42935;50.966;16.992;2022-09-12T03:22:02;11;10;8
57049;PMS7003;42935;50.966;16.992;2022-09-12T03:28:46;11;10;8
57049;PMS7003;42935;50.966;16.992;2022-09-12T03:31:59;13;11;8
57049;PMS7003;42935;50.966;16.992;2022-09-12T03:35:09;11;10;8
57049;PMS7003;42935;50.966;16.992;2022-09-12T03:38:21;15;12;9
57049;PMS7003;42935;50.966;16.992;2022-09-12T03:41:41;13;11;7
57049;PMS7003;42935;50.966;16.992;2022-09-12T03:44:53;12;10;7
57049;PMS7003;42935;50.966;16.992;2022-09-12T03:48:04;11;10;9
57049;PMS7003;42935;50.966;16.992;2022-09-12T03:51:16;11;10;8
57049;PMS7003;42935;50.966;16.992;2022-09-12T03:54:28;11;11;8
57049;PMS7003;42935;50.966;16.992;2022-09-12T03:57:38;10;9;7
57049;PMS7003;42935;50.966;16.992;2022-09-12T04:00:48;11;11;7
57049;PMS7003;42935;50.966;16.992;2022-09-12T04:03:59;12;11;9
57049;PMS7003;42935;50.966;16.992;2022-09-12T04:07:09;14;11;8
57049;PMS7003;42935;50.966;16.992;2022-09-12T04:10:23;14;12;8
57049;PMS7003;42935;50.966;16.992;2022-09-12T04:13:35;12;10;6
57049;PMS7003;42935;50.966;16.992;2022-09-12T04:16:51;15;12;9
57049;PMS7003;42935;50.966;16.992;2022-09-12T04:20:02;11;10;7
57049;PMS7003;42935;50.966;16.992;2022-09-12T04:23:18;15;10;8
57049;PMS7003;42935;50.966;16.992;2022-09-12T04:26:29;14;12;8
57049;PMS7003;42935;50.966;16.992;2022-09-12T04:29:40;12;11;8
57049;PMS7003;42935;50.966;16.992;2022-09-12T04:32:51;13;11;9
57049;PMS7003;42935;50.966;16.992;2022-09-12T04:36:07;12;10;8
57049;PMS7003;42935;50.966;16.992;2022-09-12T04:39:21;13;12;8
57049;PMS7003;42935;50.966;16.992;2022-09-12T04:42:32;12;10;8
57049;PMS7003;42935;50.966;16.992;2022-09-12T04:45:42;13;11;8
57049;PMS7003;42935;50.966;16.992;2022-09-12T04:48:52;12;11;8
57049;PMS7003;42935;50.966;16.992;2022-09-12T04:52:05;11;10;8
57049;PMS7003;42935;50.966;16.992;2022-09-12T04:55:16;13;11;8
57049;PMS7003;42935;50.966;16.992;2022-09-12T04:58:26;13;10;9
57049;PMS7003;42935;50.966;16.992;2022-09-12T05:01:36;14;11;9
57049;PMS7003;42935;50.966;16.992;2022-09-12T05:04:47;13;10;9
57049;PMS7003;42935;50.966;16.992;2022-09-12T05:07:58;12;11;8
57049;PMS7003;42935;50.966;16.992;2022-09-12T05:14:27;14;11;9
57049;PMS7003;42935;50.966;16.992;2022-09-12T05:17:41;13;12;10
57049;PMS7003;42935;50.966;16.992;2022-09-12T05:20:52;13;11;7
57049;PMS7003;42935;50.966;16.992;2022-09-12T05:24:34;13;11;9
57049;PMS7003;42935;50.966;16.992;2022-09-12T05:27:54;13;12;8
57049;PMS7003;42935;50.966;16.992;2022-09-12T05:31:09;13;11;7
57049;PMS7003;42935;50.966;16.992;2022-09-12T05:34:22;14;12;9
57049;PMS7003;42935;50.966;16.992;2022-09-12T05:37:32;12;11;8
57049;PMS7003;42935;50.966;16.992;2022-09-12T05:40:42;14;10;7
57049;PMS7003;42935;50.966;16.992;2022-09-12T05:43:53;15;12;8
57049;PMS7003;42935;50.966;16.992;2022-09-12T05:47:06;15;11;8
57049;PMS7003;42935;50.966;16.992;2022-09-12T05:50:19;14;12;8
57049;PMS7003;42935;50.966;16.992;2022-09-12T05:53:29;13;11;8
57049;PMS7003;42935;50.966;16.992;2022-09-12T05:56:39;13;12;8
57049;PMS7003;42935;50.966;16.992;2022-09-12T05:59:53;13;12;10
57049;PMS7003;42935;50.966;16.992;2022-09-12T06:03:02;13;12;8
57049;PMS7003;42935;50.966;16.992;2022-09-12T06:06:13;12;9;7
57049;PMS7003;42935;50.966;16.992;2022-09-12T06:09:26;13;11;8
57049;PMS7003;42935;50.966;16.992;2022-09-12T06:12:38;12;11;7
57049;PMS7003;42935;50.966;16.992;2022-09-12T06:15:47;12;11;8
57049;PMS7003;42935;50.966;16.992;2022-09-12T06:18:59;12;11;8
57049;PMS7003;42935;50.966;16.992;2022-09-12T06:22:14;14;11;7
57049;PMS7003;42935;50.966;16.992;2022-09-12T06:25:29;16;13;8
57049;PMS7003;42935;50.966;16.992;2022-09-12T06:28:40;18;12;8
57049;PMS7003;42935;50.966;16.992;2022-09-12T06:31:54;16;10;7
57049;PMS7003;42935;50.966;16.992;2022-09-12T06:35:04;13;11;8
57049;PMS7003;42935;50.966;16.992;2022-09-12T06:38:18;19;10;7
57049;PMS7003;42935;50.966;16.992;2022-09-12T06:41:28;11;10;7
57049;PMS7003;42935;50.966;16.992;2022-09-12T06:44:41;12;9;7
57049;PMS7003;42935;50.966;16.992;2022-09-12T06:47:53;11;10;7
57049;PMS7003;42935;50.966;16.992;2022-09-12T06:51:08;11;9;7
57049;PMS7003;42935;50.966;16.992;2022-09-12T06:54:25;11;9;7
57049;PMS7003;42935;50.966;16.992;2022-09-12T06:57:36;10;8;6
57049;PMS7003;42935;50.966;16.992;2022-09-12T07:00:46;11;10;6
57049;PMS7003;42935;50.966;16.992;2022-09-12T07:03:58;11;9;7
57049;PMS7003;42935;50.966;16.992;2022-09-12T07:07:12;8;7;5
57049;PMS7003;42935;50.966;16.992;2022-09-12T07:10:23;13;10;8
57049;PMS7003;42935;50.966;16.992;2022-09-12T07:13:34;11;8;6
57049;PMS7003;42935;50.966;16.992;2022-09-12T07:16:44;11;8;6
57049;PMS7003;42935;50.966;16.992;2022-09-12T07:19:56;11;7;6
57049;PMS7003;42935;50.966;16.992;2022-09-12T07:23:10;7;7;5
57049;PMS7003;42935;50.966;16.992;2022-09-12T07:26:27;7;6;5
57049;PMS7003;42935;50.966;16.992;2022-09-12T07:29:39;10;8;6
57049;PMS7003;42935;50.966;16.992;2022-09-12T07:32:52;10;7;6
57049;PMS7003;42935;50.966;16.992;2022-09-12T07:36:33;9;8;6
57049;PMS7003;42935;50.966;16.992;2022-09-12T07:39:44;11;11;8
57049;PMS7003;42935;50.966;16.992;2022-09-12T07:43:24;8;7;6
57049;PMS7003;42935;50.966;16.992;2022-09-12T07:46:35;8;7;6
57049;PMS7003;42935;50.966;16.992;2022-09-12T07:49:46;12;10;7
57049;PMS7003;42935;50.966;16.992;2022-09-12T07:52:56;8;8;7
57049;PMS7003;42935;50.966;16.992;2022-09-12T07:56:06;8;8;6
57049;PMS7003;42935;50.966;16.992;2022-09-12T07:59:21;11;9;7
57049;PMS7003;42935;50.966;16.992;2022-09-12T08:03:01;11;9;7
57049;PMS7003;42935;50.966;16.992;2022-09-12T08:06:20;9;8;7
57049;PMS7003;42935;50.966;16.992;2022-09-12T08:09:32;10;9;6
57049;PMS7003;42935;50.966;16.992;2022-09-12T08:12:42;10;9;7
57049;PMS7003;42935;50.966;16.992;2022-09-12T08:15:56;11;9;7
57049;PMS7003;42935;50.966;16.992;2022-09-12T08:19:09;10;9;6
57049;PMS7003;42935;50.966;16.992;2022-09-12T08:22:22;7;6;5
57049;PMS7003;42935;50.966;16.992;2022-09-12T08:25:39;10;7;6
57049;PMS7003;42935;50.966;16.992;2022-09-12T08:29:18;8;7;6
57049;PMS7003;42935;50.966;16.992;2022-09-12T08:32:29;10;8;6
57049;PMS7003;42935;50.966;16.992;2022-09-12T08:35:41;9;8;6
57049;PMS7003;42935;50.966;16.992;2022-09-12T08:42:15;8;8;7
57049;PMS7003;42935;50.966;16.992;2022-09-12T08:45:35;10;8;7
57049;PMS7003;42935;50.966;16.992;2022-09-12T08:48:55;9;8;7
57049;PMS7003;42935;50.966;16.992;2022-09-12T08:52:18;9;7;7
57049;PMS7003;42935;50.966;16.992;2022-09-12T08:56:04;8;8;6
57049;PMS7003;42935;50.966;16.992;2022-09-12T08:59:50;11;8;7
57049;PMS7003;42935;50.966;16.992;2022-09-12T09:03:11;10;7;5
57049;PMS7003;42935;50.966;16.992;2022-09-12T09:13:23;9;8;7
57049;PMS7003;42935;50.966;16.992;2022-09-12T09:17:23;8;7;6
57049;PMS7003;42935;50.966;16.992;2022-09-12T09:20:49;8;8;7
57049;PMS7003;42935;50.966;16.992;2022-09-12T09:24:08;7;7;6
57049;PMS7003;42935;50.966;16.992;2022-09-12T09:27:25;7;6;5
57049;PMS7003;42935;50.966;16.992;2022-09-12T09:30:44;7;5;4
57049;PMS7003;42935;50.966;16.992;2022-09-12T09:33:56;8;6;5
57049;PMS7003;42935;50.966;16.992;2022-09-12T09:40:31;10;7;5
57049;PMS7003;42935;50.966;16.992;2022-09-12T09:44:16;8;7;5
57049;PMS7003;42935;50.966;16.992;2022-09-12T09:47:28;9;6;5
57049;PMS7003;42935;50.966;16.992;2022-09-12T09:50:38;7;6;5
57049;PMS7003;42935;50.966;16.992;2022-09-12T10:00:39;7;5;4
57049;PMS7003;42935;50.966;16.992;2022-09-12T10:03:53;8;7;5
57049;PMS7003;42935;50.966;16.992;2022-09-12T10:07:05;9;7;6
57049;PMS7003;42935;50.966;16.992;2022-09-12T10:10:22;7;6;5
57049;PMS7003;42935;50.966;16.992;2022-09-12T10:13:35;9;7;5
57049;PMS7003;42935;50.966;16.992;2022-09-12T10:16:53;6;6;5
57049;PMS7003;42935;50.966;16.992;2022-09-12T10:20:14;6;6;5
57049;PMS7003;42935;50.966;16.992;2022-09-12T10:26:50;10;9;8
57049;PMS7003;42935;50.966;16.992;2022-09-12T10:33:58;10;9;7
57049;PMS7003;42935;50.966;16.992;2022-09-12T10:40:33;8;7;6
57049;PMS7003;42935;50.966;16.992;2022-09-12T10:43:49;10;9;7
57049;PMS7003;42935;50.966;16.992;2022-09-12T10:53:44;12;10;6
57049;PMS7003;42935;50.966;16.992;2022-09-12T11:00:46;8;7;6
57049;PMS7003;42935;50.966;16.992;2022-09-12T11:04:08;11;8;6
57049;PMS7003;42935;50.966;16.992;2022-09-12T11:07:30;7;6;5
57049;PMS7003;42935;50.966;16.992;2022-09-12T11:38:29;8;6;5
57049;PMS7003;42935;50.966;16.992;2022-09-12T11:41:57;8;7;5
57049;PMS7003;42935;50.966;16.992;2022-09-12T11:45:17;15;12;9
57049;PMS7003;42935;50.966;16.992;2022-09-12T11:48:36;13;11;9
57049;PMS7003;42935;50.966;16.992;2022-09-12T11:51:56;7;7;5
57049;PMS7003;42935;50.966;16.992;2022-09-12T11:55:15;9;8;7
57049;PMS7003;42935;50.966;16.992;2022-09-12T11:58:28;9;6;5
57049;PMS7003;42935;50.966;16.992;2022-09-12T12:01:42;5;5;4
57049;PMS7003;42935;50.966;16.992;2022-09-12T12:08:21;7;7;6
57049;PMS7003;42935;50.966;16.992;2022-09-12T12:11:34;7;5;4
57049;PMS7003;42935;50.966;16.992;2022-09-12T12:14:51;7;6;5
57049;PMS7003;42935;50.966;16.992;2022-09-12T12:18:36;8;8;6
57049;PMS7003;42935;50.966;16.992;2022-09-12T12:21:48;6;6;5
57049;PMS7003;42935;50.966;16.992;2022-09-12T12:28:56;6;5;4
57049;PMS7003;42935;50.966;16.992;2022-09-12T12:38:50;8;7;5
57049;PMS7003;42935;50.966;16.992;2022-09-12T12:42:00;4;4;3
57049;PMS7003;42935;50.966;16.992;2022-09-12T12:48:47;5;5;5
57049;PMS7003;42935;50.966;16.992;2022-09-12T12:52:14;7;6;5
57049;PMS7003;42935;50.966;16.992;2022-09-12T12:55:57;6;5;4
57049;PMS7003;42935;50.966;16.992;2022-09-12T12:59:16;6;5;4
57049;PMS7003;42935;50.966;16.992;2022-09-12T13:02:35;7;6;5
57049;PMS7003;42935;50.966;16.992;2022-09-12T13:05:46;8;6;5
57049;PMS7003;42935;50.966;16.992;2022-09-12T13:09:02;7;6;5
57049;PMS7003;42935;50.966;16.992;2022-09-12T13:12:25;7;5;5
57049;PMS7003;42935;50.966;16.992;2022-09-12T13:22:21;8;7;6
57049;PMS7003;42935;50.966;16.992;2022-09-12T13:25:36;7;6;5
57049;PMS7003;42935;50.966;16.992;2022-09-12T13:29:20;7;6;4
57049;PMS7003;42935;50.966;16.992;2022-09-12T13:32:30;6;6;4
57049;PMS7003;42935;50.966;16.992;2022-09-12T13:35:53;4;4;3
57049;PMS7003;42935;50.966;16.992;2022-09-12T13:45:57;8;7;6
57049;PMS7003;42935;50.966;16.992;2022-09-12T13:52:34;6;6;4
57049;PMS7003;42935;50.966;16.992;2022-09-12T13:55:55;5;5;4
57049;PMS7003;42935;50.966;16.992;2022-09-12T13:59:10;10;8;7
57049;PMS7003;42935;50.966;16.992;2022-09-12T14:02:22;8;7;5
57049;PMS7003;42935;50.966;16.992;2022-09-12T14:05:32;8;6;5
57049;PMS7003;42935;50.966;16.992;2022-09-12T14:08:46;7;7;6
57049;PMS7003;42935;50.966;16.992;2022-09-12T14:12:01;8;6;5
57049;PMS7003;42935;50.966;16.992;2022-09-12T14:15:20;8;6;5
57049;PMS7003;42935;50.966;16.992;2022-09-12T14:18:36;9;7;5
57049;PMS7003;42935;50.966;16.992;2022-09-12T14:21:52;6;6;5
57049;PMS7003;42935;50.966;16.992;2022-09-12T14:25:17;8;7;6
57049;PMS7003;42935;50.966;16.992;2022-09-12T14:28:27;7;6;5
57049;PMS7003;42935;50.966;16.992;2022-09-12T14:31:41;8;6;5
57049;PMS7003;42935;50.966;16.992;2022-09-12T14:38:21;9;8;6
57049;PMS7003;42935;50.966;16.992;2022-09-12T14:41:38;10;7;6
57049;PMS7003;42935;50.966;16.992;2022-09-12T14:44:55;8;7;5
57049;PMS7003;42935;50.966;16.992;2022-09-12T14:48:16;8;6;5
57049;PMS7003;42935;50.966;16.992;2022-09-12T14:51:31;7;6;6
57049;PMS7003;42935;50.966;16.992;2022-09-12T14:54:54;6;5;5
57049;PMS7003;42935;50.966;16.992;2022-09-12T14:58:11;6;5;5
57049;PMS7003;42935;50.966;16.992;2022-09-12T15:01:25;7;6;5
57049;PMS7003;42935;50.966;16.992;2022-09-12T15:04:42;8;6;5
57049;PMS7003;42935;50.966;16.992;2022-09-12T15:07:58;7;6;5
57049;PMS7003;42935;50.966;16.992;2022-09-12T15:11:15;9;7;5
57049;PMS7003;42935;50.966;16.992;2022-09-12T15:14:25;6;6;5
57049;PMS7003;42935;50.966;16.992;2022-09-12T15:17:36;6;5;4
57049;PMS7003;42935;50.966;16.992;2022-09-12T15:20:50;8;7;5
57049;PMS7003;42935;50.966;16.992;2022-09-12T15:24:06;5;5;4
57049;PMS7003;42935;50.966;16.992;2022-09-12T15:27:19;6;5;4
57049;PMS7003;42935;50.966;16.992;2022-09-12T15:30:33;5;5;4
57049;PMS7003;42935;50.966;16.992;2022-09-12T15:33:44;7;5;4
57049;PMS7003;42935;50.966;16.992;2022-09-12T15:36:55;6;5;4
57049;PMS7003;42935;50.966;16.992;2022-09-12T15:40:10;6;5;4
57049;PMS7003;42935;50.966;16.992;2022-09-12T15:43:23;6;5;5
57049;PMS7003;42935;50.966;16.992;2022-09-12T15:46:34;7;6;4
57049;PMS7003;42935;50.966;16.992;2022-09-12T15:49:44;8;6;5
57049;PMS7003;42935;50.966;16.992;2022-09-12T15:52:55;6;4;4
57049;PMS7003;42935;50.966;16.992;2022-09-12T15:56:02;4;4;4
57049;PMS7003;42935;50.966;16.992;2022-09-12T15:59:13;5;4;4
57049;PMS7003;42935;50.966;16.992;2022-09-12T16:02:24;5;5;4
57049;PMS7003;42935;50.966;16.992;2022-09-12T16:05:35;7;7;5
57049;PMS7003;42935;50.966;16.992;2022-09-12T16:08:46;7;6;5
57049;PMS7003;42935;50.966;16.992;2022-09-12T16:11:56;7;6;5
57049;PMS7003;42935;50.966;16.992;2022-09-12T16:15:10;6;6;5
57049;PMS7003;42935;50.966;16.992;2022-09-12T16:18:59;6;5;4
57049;PMS7003;42935;50.966;16.992;2022-09-12T16:22:08;5;5;4
57049;PMS7003;42935;50.966;16.992;2022-09-12T16:25:15;6;5;4
57049;PMS7003;42935;50.966;16.992;2022-09-12T16:28:25;7;5;4
57049;PMS7003;42935;50.966;16.992;2022-09-12T16:31:37;7;6;5
57049;PMS7003;42935;50.966;16.992;2022-09-12T16:34:50;8;6;5
57049;PMS7003;42935;50.966;16.992;2022-09-12T16:38:02;5;5;5
57049;PMS7003;42935;50.966;16.992;2022-09-12T16:41:14;7;5;3
57049;PMS7003;42935;50.966;16.992;2022-09-12T16:44:25;6;6;4
57049;PMS7003;42935;50.966;16.992;2022-09-12T16:47:36;7;6;4
57049;PMS7003;42935;50.966;16.992;2022-09-12T16:50:54;7;7;5
57049;PMS7003;42935;50.966;16.992;2022-09-12T16:54:08;7;5;4
57049;PMS7003;42935;50.966;16.992;2022-09-12T16:57:22;6;5;4
57049;PMS7003;42935;50.966;16.992;2022-09-12T17:00:33;5;5;4
57049;PMS7003;42935;50.966;16.992;2022-09-12T17:03:44;7;6;5
57049;PMS7003;42935;50.966;16.992;2022-09-12T17:06:57;5;5;4
57049;PMS7003;42935;50.966;16.992;2022-09-12T17:10:09;6;6;5
57049;PMS7003;42935;50.966;16.992;2022-09-12T17:13:20;7;5;4
57049;PMS7003;42935;50.966;16.992;2022-09-12T17:16:27;7;6;5
57049;PMS7003;42935;50.966;16.992;2022-09-12T17:19:38;7;6;5
57049;PMS7003;42935;50.966;16.992;2022-09-12T17:22:52;7;6;4
57049;PMS7003;42935;50.966;16.992;2022-09-12T17:26:08;7;6;5
57049;PMS7003;42935;50.966;16.992;2022-09-12T17:29:22;8;6;5
57049;PMS7003;42935;50.966;16.992;2022-09-12T17:32:31;8;7;6
57049;PMS7003;42935;50.966;16.992;2022-09-12T17:35:42;9;7;6
57049;PMS7003;42935;50.966;16.992;2022-09-12T17:38:53;8;8;5
57049;PMS7003;42935;50.966;16.992;2022-09-12T17:42:08;7;6;5
57049;PMS7003;42935;50.966;16.992;2022-09-12T17:45:20;7;7;5
57049;PMS7003;42935;50.966;16.992;2022-09-12T17:48:31;7;6;5
57049;PMS7003;42935;50.966;16.992;2022-09-12T17:51:43;9;7;5
57049;PMS7003;42935;50.966;16.992;2022-09-12T17:54:55;8;7;5
57049;PMS7003;42935;50.966;16.992;2022-09-12T17:58:08;8;7;5
57049;PMS7003;42935;50.966;16.992;2022-09-12T18:01:19;9;8;6
57049;PMS7003;42935;50.966;16.992;2022-09-12T18:04:42;7;7;6
57049;PMS7003;42935;50.966;16.992;2022-09-12T18:07:54;12;8;6
57049;PMS7003;42935;50.966;16.992;2022-09-12T18:11:09;9;8;6
57049;PMS7003;42935;50.966;16.992;2022-09-12T18:14:20;10;8;6
57049;PMS7003;42935;50.966;16.992;2022-09-12T18:17:33;10;9;6
57049;PMS7003;42935;50.966;16.992;2022-09-12T18:24:01;10;10;7
57049;PMS7003;42935;50.966;16.992;2022-09-12T18:27:12;14;12;9
57049;PMS7003;42935;50.966;16.992;2022-09-12T18:30:23;13;12;8
57049;PMS7003;42935;50.966;16.992;2022-09-12T18:33:35;14;12;9
57049;PMS7003;42935;50.966;16.992;2022-09-12T18:36:51;13;12;9
57049;PMS7003;42935;50.966;16.992;2022-09-12T18:40:07;14;14;11
57049;PMS7003;42935;50.966;16.992;2022-09-12T18:43:21;15;14;10
57049;PMS7003;42935;50.966;16.992;2022-09-12T18:46:36;21;17;12
57049;PMS7003;42935;50.966;16.992;2022-09-12T18:49:47;19;15;11
57049;PMS7003;42935;50.966;16.992;2022-09-12T18:52:58;18;17;11
57049;PMS7003;42935;50.966;16.992;2022-09-12T18:56:10;11;10;8
57049;PMS7003;42935;50.966;16.992;2022-09-12T18:59:23;11;9;7
57049;PMS7003;42935;50.966;16.992;2022-09-12T19:02:37;16;13;9
57049;PMS7003;42935;50.966;16.992;2022-09-12T19:05:47;19;12;8
57049;PMS7003;42935;50.966;16.992;2022-09-12T19:08:59;11;9;8
57049;PMS7003;42935;50.966;16.992;2022-09-12T19:12:11;10;9;7
57049;PMS7003;42935;50.966;16.992;2022-09-12T19:15:27;11;10;7
57049;PMS7003;42935;50.966;16.992;2022-09-12T19:18:38;13;10;7
57049;PMS7003;42935;50.966;16.992;2022-09-12T19:21:51;13;9;7
57049;PMS7003;42935;50.966;16.992;2022-09-12T19:25:02;10;9;7
57049;PMS7003;42935;50.966;16.992;2022-09-12T19:28:12;8;8;6
57049;PMS7003;42935;50.966;16.992;2022-09-12T19:31:25;10;9;6
57049;PMS7003;42935;50.966;16.992;2022-09-12T19:34:36;12;9;8
57049;PMS7003;42935;50.966;16.992;2022-09-12T19:37:47;11;10;7
57049;PMS7003;42935;50.966;16.992;2022-09-12T19:41:00;12;11;8
57049;PMS7003;42935;50.966;16.992;2022-09-12T19:44:42;11;11;7
57049;PMS7003;42935;50.966;16.992;2022-09-12T19:47:52;13;10;8
57049;PMS7003;42935;50.966;16.992;2022-09-12T19:51:04;9;9;8
57049;PMS7003;42935;50.966;16.992;2022-09-12T19:54:14;13;11;8
57049;PMS7003;42935;50.966;16.992;2022-09-12T19:57:24;11;10;8
57049;PMS7003;42935;50.966;16.992;2022-09-12T20:00:42;13;12;9
57049;PMS7003;42935;50.966;16.992;2022-09-12T20:03:58;15;13;10
57049;PMS7003;42935;50.966;16.992;2022-09-12T20:07:17;15;13;9
57049;PMS7003;42935;50.966;16.992;2022-09-12T20:10:35;16;14;10
57049;PMS7003;42935;50.966;16.992;2022-09-12T20:13:45;17;14;9
57049;PMS7003;42935;50.966;16.992;2022-09-12T20:16:57;15;14;10
57049;PMS7003;42935;50.966;16.992;2022-09-12T20:20:07;16;14;10
57049;PMS7003;42935;50.966;16.992;2022-09-12T20:23:24;23;20;12
57049;PMS7003;42935;50.966;16.992;2022-09-12T20:26:36;22;19;14
57049;PMS7003;42935;50.966;16.992;2022-09-12T20:29:47;18;17;11
57049;PMS7003;42935;50.966;16.992;2022-09-12T20:33:02;26;22;14
57049;PMS7003;42935;50.966;16.992;2022-09-12T20:36:17;21;19;14
57049;PMS7003;42935;50.966;16.992;2022-09-12T20:39:28;25;19;15
57049;PMS7003;42935;50.966;16.992;2022-09-12T20:42:42;20;19;12
57049;PMS7003;42935;50.966;16.992;2022-09-12T20:45:55;17;16;11
57049;PMS7003;42935;50.966;16.992;2022-09-12T20:49:05;27;23;16
57049;PMS7003;42935;50.966;16.992;2022-09-12T20:52:16;21;20;13
57049;PMS7003;42935;50.966;16.992;2022-09-12T20:55:31;21;17;13
57049;PMS7003;42935;50.966;16.992;2022-09-12T20:58:46;20;18;13
57049;PMS7003;42935;50.966;16.992;2022-09-12T21:01:58;25;19;14
57049;PMS7003;42935;50.966;16.992;2022-09-12T21:05:12;19;17;11
57049;PMS7003;42935;50.966;16.992;2022-09-12T21:08:27;25;18;13
57049;PMS7003;42935;50.966;16.992;2022-09-12T21:11:42;20;18;12
57049;PMS7003;42935;50.966;16.992;2022-09-12T21:14:53;21;18;13
57049;PMS7003;42935;50.966;16.992;2022-09-12T21:18:04;21;17;13
57049;PMS7003;42935;50.966;16.992;2022-09-12T21:21:18;22;19;13
57049;PMS7003;42935;50.966;16.992;2022-09-12T21:24:31;23;19;14
57049;PMS7003;42935;50.966;16.992;2022-09-12T21:28:10;23;19;13
57049;PMS7003;42935;50.966;16.992;2022-09-12T21:31:20;18;16;12
57049;PMS7003;42935;50.966;16.992;2022-09-12T21:34:34;22;18;11
57049;PMS7003;42935;50.966;16.992;2022-09-12T21:37:46;22;18;13
57049;PMS7003;42935;50.966;16.992;2022-09-12T21:44:14;18;15;11
57049;PMS7003;42935;50.966;16.992;2022-09-12T21:47:28;19;17;13
57049;PMS7003;42935;50.966;16.992;2022-09-12T21:50:41;20;15;11
57049;PMS7003;42935;50.966;16.992;2022-09-12T21:53:54;17;15;10
57049;PMS7003;42935;50.966;16.992;2022-09-12T21:57:07;18;16;12
57049;PMS7003;42935;50.966;16.992;2022-09-12T22:00:19;17;16;11
57049;PMS7003;42935;50.966;16.992;2022-09-12T22:03:32;17;15;11
57049;PMS7003;42935;50.966;16.992;2022-09-12T22:06:43;18;16;10
57049;PMS7003;42935;50.966;16.992;2022-09-12T22:09:59;21;17;12
57049;PMS7003;42935;50.966;16.992;2022-09-12T22:13:10;22;19;12
57049;PMS7003;42935;50.966;16.992;2022-09-12T22:16:23;22;18;13
57049;PMS7003;42935;50.966;16.992;2022-09-12T22:19:38;26;16;12
57049;PMS7003;42935;50.966;16.992;2022-09-12T22:22:52;19;15;11
57049;PMS7003;42935;50.966;16.992;2022-09-12T22:26:13;19;16;10
57049;PMS7003;42935;50.966;16.992;2022-09-12T22:29:27;18;15;11
57049;PMS7003;42935;50.966;16.992;2022-09-12T22:32:39;20;19;13
57049;PMS7003;42935;50.966;16.992;2022-09-12T22:35:50;21;19;13
57049;PMS7003;42935;50.966;16.992;2022-09-12T22:39:02;19;18;12
57049;PMS7003;42935;50.966;16.992;2022-09-12T22:42:18;20;18;13
57049;PMS7003;42935;50.966;16.992;2022-09-12T22:45:29;19;16;12
57049;PMS7003;42935;50.966;16.992;2022-09-12T22:48:44;20;17;12
57049;PMS7003;42935;50.966;16.992;2022-09-12T22:51:56;19;18;12
57049;PMS7003;42935;50.966;16.992;2022-09-12T22:55:09;17;16;11
57049;PMS7003;42935;50.966;16.992;2022-09-12T22:58:27;20;18;11
57049;PMS7003;42935;50.966;16.992;2022-09-12T23:01:37;16;13;10
57049;PMS7003;42935;50.966;16.992;2022-09-12T23:04:51;19;16;12
57049;PMS7003;42935;50.966;16.992;2022-09-12T23:07:58;21;19;12
57049;PMS7003;42935;50.966;16.992;2022-09-12T23:11:13;19;16;12
57049;PMS7003;42935;50.966;16.992;2022-09-12T23:14:26;20;19;13
57049;PMS7003;42935;50.966;16.992;2022-09-12T23:17:37;20;18;12
57049;PMS7003;42935;50.966;16.992;2022-09-12T23:20:57;20;18;11
57049;PMS7003;42935;50.966;16.992;2022-09-12T23:24:07;18;16;12
57049;PMS7003;42935;50.966;16.992;2022-09-12T23:27:25;20;16;12
57049;PMS7003;42935;50.966;16.992;2022-09-12T23:30:37;19;17;12
57049;PMS7003;42935;50.966;16.992;2022-09-12T23:33:52;16;14;10
57049;PMS7003;42935;50.966;16.992;2022-09-12T23:37:05;20;16;11
57049;PMS7003;42935;50.966;16.992;2022-09-12T23:40:18;20;16;12
57049;PMS7003;42935;50.966;16.992;2022-09-12T23:43:34;21;15;11
57049;PMS7003;42935;50.966;16.992;2022-09-12T23:46:49;16;14;10
57049;PMS7003;42935;50.966;16.992;2022-09-12T23:50:00;19;15;11
57049;PMS7003;42935;50.966;16.992;2022-09-12T23:53:13;19;17;12